sensor_id;sensor_type;location;lat;lon;timestamp;pressure;altitude;pressure_sealevel;temperature;humidity
21980;BME280;11154;48.558;9.234;2023-05-11T00:01:22;97343.97;;;15.72;90.54
21980;BME280;11154;48.558;9.234;2023-05-11T00:03:24;97340.91;;;15.48;91.61
21980;BME280;11154;48.558;9.234;2023-05-11T00:05:27;97343.31;;;15.36;93.58
21980;BME280;11154;48.558;9.234;2023-05-11T00:07:29;97347.16;;;15.27;94.14
21980;BME280;11154;48.558;9.234;2023-05-11T00:09:30;97344.88;;;15.24;95.17
21980;BME280;11154;48.558;9.234;2023-05-11T00:11:32;97339.41;;;15.18;95.08
21980;BME280;11154;48.558;9.234;2023-05-11T00:13:34;97340.00;;;15.13;95.44
21980;BME280;11154;48.558;9.234;2023-05-11T00:15:35;97344.53;;;15.13;96.22
21980;BME280;11154;48.558;9.234;2023-05-11T00:17:37;97342.88;;;15.12;96.09
21980;BME280;11154;48.558;9.234;2023-05-11T00:19:39;97335.03;;;15.11;96.22
21980;BME280;11154;48.558;9.234;2023-05-11T00:21:42;97334.19;;;15.10;96.59
21980;BME280;11154;48.558;9.234;2023-05-11T00:23:43;97329.03;;;15.09;96.28
21980;BME280;11154;48.558;9.234;2023-05-11T00:25:45;97338.75;;;15.10;95.72
21980;BME280;11154;48.558;9.234;2023-05-11T00:27:47;97338.38;;;15.13;95.32
21980;BME280;11154;48.558;9.234;2023-05-11T00:29:48;97340.00;;;15.13;95.29
21980;BME280;11154;48.558;9.234;2023-05-11T00:31:50;97350.22;;;15.52;93.64
21980;BME280;11154;48.558;9.234;2023-05-11T00:33:51;97348.69;;;15.70;91.91
21980;BME280;11154;48.558;9.234;2023-05-11T00:35:54;97342.56;;;15.83;90.80
21980;BME280;11154;48.558;9.234;2023-05-11T00:37:57;97341.78;;;15.88;89.96
21980;BME280;11154;48.558;9.234;2023-05-11T00:39:58;97337.91;;;15.97;89.53
21980;BME280;11154;48.558;9.234;2023-05-11T00:42:00;97327.63;;;16.01;88.87
21980;BME280;11154;48.558;9.234;2023-05-11T00:44:03;97332.34;;;16.05;88.45
21980;BME280;11154;48.558;9.234;2023-05-11T00:46:05;97342.72;;;16.08;88.25
21980;BME280;11154;48.558;9.234;2023-05-11T00:48:07;97336.31;;;16.09;88.27
21980;BME280;11154;48.558;9.234;2023-05-11T00:50:09;97333.44;;;16.11;88.24
21980;BME280;11154;48.558;9.234;2023-05-11T00:52:11;97332.00;;;16.15;87.32
21980;BME280;11154;48.558;9.234;2023-05-11T00:54:14;97333.63;;;16.09;87.57
21980;BME280;11154;48.558;9.234;2023-05-11T00:56:16;97335.88;;;16.06;88.18
21980;BME280;11154;48.558;9.234;2023-05-11T00:58:18;97331.75;;;16.03;87.83
21980;BME280;11154;48.558;9.234;2023-05-11T01:00:20;97326.88;;;15.80;88.56
21980;BME280;11154;48.558;9.234;2023-05-11T01:02:22;97329.16;;;15.49;90.61
21980;BME280;11154;48.558;9.234;2023-05-11T01:04:24;97333.63;;;15.35;92.36
21980;BME280;11154;48.558;9.234;2023-05-11T01:06:29;97333.75;;;15.27;92.85
21980;BME280;11154;48.558;9.234;2023-05-11T01:08:37;97329.34;;;15.20;93.73
21980;BME280;11154;48.558;9.234;2023-05-11T01:10:47;97328.25;;;15.14;94.04
21980;BME280;11154;48.558;9.234;2023-05-11T01:12:55;97318.97;;;15.11;94.22
21980;BME280;11154;48.558;9.234;2023-05-11T01:15:01;97323.94;;;15.13;94.59
21980;BME280;11154;48.558;9.234;2023-05-11T01:17:09;97325.59;;;15.14;94.85
21980;BME280;11154;48.558;9.234;2023-05-11T01:19:18;97322.72;;;15.16;94.39
21980;BME280;11154;48.558;9.234;2023-05-11T01:21:21;97323.94;;;15.13;94.47
21980;BME280;11154;48.558;9.234;2023-05-11T01:23:53;97327.00;;;15.11;94.74
21980;BME280;11154;48.558;9.234;2023-05-11T01:28:56;97327.38;;;15.08;95.43
21980;BME280;11154;48.558;9.234;2023-05-11T01:31:06;97334.44;;;15.36;95.11
21980;BME280;11154;48.558;9.234;2023-05-11T01:33:11;97333.34;;;15.58;93.31
21980;BME280;11154;48.558;9.234;2023-05-11T01:35:17;97331.78;;;15.70;92.62
21980;BME280;11154;48.558;9.234;2023-05-11T01:37:21;97338.81;;;15.77;91.44
21980;BME280;11154;48.558;9.234;2023-05-11T01:39:27;97328.97;;;15.84;90.72
21980;BME280;11154;48.558;9.234;2023-05-11T01:41:32;97334.75;;;15.88;90.71
21980;BME280;11154;48.558;9.234;2023-05-11T01:43:35;97332.50;;;15.91;90.38
21980;BME280;11154;48.558;9.234;2023-05-11T01:45:40;97329.44;;;15.94;90.35
21980;BME280;11154;48.558;9.234;2023-05-11T01:47:47;97333.56;;;15.96;90.05
21980;BME280;11154;48.558;9.234;2023-05-11T01:49:50;97337.72;;;15.99;89.77
21980;BME280;11154;48.558;9.234;2023-05-11T01:51:54;97334.00;;;16.00;89.52
21980;BME280;11154;48.558;9.234;2023-05-11T01:53:57;97340.78;;;15.96;90.04
21980;BME280;11154;48.558;9.234;2023-05-11T01:56:01;97335.19;;;15.91;89.52
21980;BME280;11154;48.558;9.234;2023-05-11T01:58:04;97340.34;;;15.92;89.41
21980;BME280;11154;48.558;9.234;2023-05-11T02:00:07;97339.22;;;15.74;89.83
21980;BME280;11154;48.558;9.234;2023-05-11T02:02:10;97331.16;;;15.40;92.22
21980;BME280;11154;48.558;9.234;2023-05-11T02:04:14;97336.84;;;15.24;93.45
21980;BME280;11154;48.558;9.234;2023-05-11T02:06:21;97334.63;;;15.13;94.09
21980;BME280;11154;48.558;9.234;2023-05-11T02:08:26;97337.06;;;15.09;94.54
21980;BME280;11154;48.558;9.234;2023-05-11T02:10:31;97329.44;;;15.06;94.64
21980;BME280;11154;48.558;9.234;2023-05-11T02:12:34;97327.13;;;15.03;95.55
21980;BME280;11154;48.558;9.234;2023-05-11T02:14:36;97329.19;;;15.01;96.10
21980;BME280;11154;48.558;9.234;2023-05-11T02:16:39;97332.25;;;14.98;95.82
21980;BME280;11154;48.558;9.234;2023-05-11T02:18:42;97325.25;;;14.97;96.29
21980;BME280;11154;48.558;9.234;2023-05-11T02:20:46;97334.69;;;14.93;96.42
21980;BME280;11154;48.558;9.234;2023-05-11T02:22:48;97334.69;;;14.93;96.47
21980;BME280;11154;48.558;9.234;2023-05-11T02:24:50;97336.59;;;14.99;96.51
21980;BME280;11154;48.558;9.234;2023-05-11T02:26:52;97328.56;;;14.99;96.52
21980;BME280;11154;48.558;9.234;2023-05-11T02:28:54;97331.84;;;15.01;96.76
21980;BME280;11154;48.558;9.234;2023-05-11T02:30:59;97334.50;;;15.21;95.02
21980;BME280;11154;48.558;9.234;2023-05-11T02:33:05;97332.47;;;15.44;93.90
21980;BME280;11154;48.558;9.234;2023-05-11T02:35:11;97332.84;;;15.48;93.35
21980;BME280;11154;48.558;9.234;2023-05-11T02:37:20;97339.44;;;15.45;93.23
21980;BME280;11154;48.558;9.234;2023-05-11T02:39:28;97327.09;;;15.44;92.83
21980;BME280;11154;48.558;9.234;2023-05-11T02:41:31;97325.88;;;15.47;93.77
21980;BME280;11154;48.558;9.234;2023-05-11T02:43:35;97326.69;;;15.47;93.73
21980;BME280;11154;48.558;9.234;2023-05-11T02:45:42;97322.56;;;15.45;93.36
21980;BME280;11154;48.558;9.234;2023-05-11T02:47:49;97331.22;;;15.47;93.44
21980;BME280;11154;48.558;9.234;2023-05-11T02:49:54;97325.03;;;15.46;93.89
21980;BME280;11154;48.558;9.234;2023-05-11T02:51:58;97320.50;;;15.47;93.66
21980;BME280;11154;48.558;9.234;2023-05-11T02:54:05;97319.66;;;15.46;93.55
21980;BME280;11154;48.558;9.234;2023-05-11T02:56:07;97318.88;;;15.52;93.73
21980;BME280;11154;48.558;9.234;2023-05-11T02:58:09;97321.19;;;15.55;93.13
21980;BME280;11154;48.558;9.234;2023-05-11T03:00:12;97320.47;;;15.40;93.02
21980;BME280;11154;48.558;9.234;2023-05-11T03:02:14;97321.00;;;15.09;96.26
21980;BME280;11154;48.558;9.234;2023-05-11T03:04:16;97313.50;;;14.98;97.10
21980;BME280;11154;48.558;9.234;2023-05-11T03:06:17;97319.25;;;14.95;98.13
21980;BME280;11154;48.558;9.234;2023-05-11T03:08:19;97312.63;;;14.91;98.68
21980;BME280;11154;48.558;9.234;2023-05-11T03:10:23;97312.19;;;14.87;99.10
21980;BME280;11154;48.558;9.234;2023-05-11T03:12:25;97307.84;;;14.86;99.43
21980;BME280;11154;48.558;9.234;2023-05-11T03:14:30;97305.81;;;14.88;99.38
21980;BME280;11154;48.558;9.234;2023-05-11T03:16:33;97308.94;;;14.92;99.75
21980;BME280;11154;48.558;9.234;2023-05-11T03:18:38;97313.00;;;14.88;98.95
21980;BME280;11154;48.558;9.234;2023-05-11T03:20:41;97307.66;;;14.88;99.39
21980;BME280;11154;48.558;9.234;2023-05-11T03:22:44;97317.97;;;14.91;99.83
21980;BME280;11154;48.558;9.234;2023-05-11T03:24:47;97316.56;;;14.95;99.58
21980;BME280;11154;48.558;9.234;2023-05-11T03:26:51;97313.50;;;14.98;99.50
21980;BME280;11154;48.558;9.234;2023-05-11T03:28:55;97311.84;;;14.97;98.65
21980;BME280;11154;48.558;9.234;2023-05-11T03:30:59;97315.75;;;15.21;98.85
21980;BME280;11154;48.558;9.234;2023-05-11T03:33:01;97313.50;;;15.46;96.96
21980;BME280;11154;48.558;9.234;2023-05-11T03:35:03;97309.66;;;15.61;95.69
21980;BME280;11154;48.558;9.234;2023-05-11T03:37:05;97309.94;;;15.73;95.13
21980;BME280;11154;48.558;9.234;2023-05-11T03:39:11;97310.78;;;15.80;94.06
21980;BME280;11154;48.558;9.234;2023-05-11T03:41:14;97319.50;;;15.88;93.65
21980;BME280;11154;48.558;9.234;2023-05-11T03:43:19;97303.66;;;15.93;93.07
21980;BME280;11154;48.558;9.234;2023-05-11T03:45:22;97313.56;;;15.99;93.33
21980;BME280;11154;48.558;9.234;2023-05-11T03:47:26;97305.09;;;16.02;93.06
21980;BME280;11154;48.558;9.234;2023-05-11T03:49:28;97311.97;;;16.04;92.72
21980;BME280;11154;48.558;9.234;2023-05-11T03:51:31;97307.41;;;16.05;92.95
21980;BME280;11154;48.558;9.234;2023-05-11T03:53:33;97309.66;;;16.01;92.97
21980;BME280;11154;48.558;9.234;2023-05-11T03:55:35;97310.91;;;15.99;92.91
21980;BME280;11154;48.558;9.234;2023-05-11T03:57:37;97302.84;;;15.99;93.55
21980;BME280;11154;48.558;9.234;2023-05-11T03:59:41;97292.94;;;15.99;94.13
21980;BME280;11154;48.558;9.234;2023-05-11T04:01:43;97290.41;;;15.45;96.72
21980;BME280;11154;48.558;9.234;2023-05-11T04:03:48;97292.31;;;15.23;98.77
21980;BME280;11154;48.558;9.234;2023-05-11T04:05:50;97295.88;;;15.10;99.67
21980;BME280;11154;48.558;9.234;2023-05-11T04:07:51;97292.72;;;15.00;100.00
21980;BME280;11154;48.558;9.234;2023-05-11T04:09:53;97297.81;;;14.95;100.00
21980;BME280;11154;48.558;9.234;2023-05-11T04:11:55;97292.88;;;14.92;100.00
21980;BME280;11154;48.558;9.234;2023-05-11T04:13:56;97295.75;;;14.90;100.00
21980;BME280;11154;48.558;9.234;2023-05-11T04:15:59;97299.88;;;14.93;100.00
21980;BME280;11154;48.558;9.234;2023-05-11T04:18:01;97297.00;;;14.94;100.00
21980;BME280;11154;48.558;9.234;2023-05-11T04:20:04;97295.13;;;14.95;100.00
21980;BME280;11154;48.558;9.234;2023-05-11T04:22:05;97297.00;;;14.94;100.00
21980;BME280;11154;48.558;9.234;2023-05-11T04:24:07;97294.31;;;14.94;100.00
21980;BME280;11154;48.558;9.234;2023-05-11T04:26:09;97297.81;;;14.95;100.00
21980;BME280;11154;48.558;9.234;2023-05-11T04:28:11;97296.34;;;14.92;100.00
21980;BME280;11154;48.558;9.234;2023-05-11T04:30:12;97306.50;;;14.97;100.00
21980;BME280;11154;48.558;9.234;2023-05-11T04:32:16;97302.63;;;15.26;100.00
21980;BME280;11154;48.558;9.234;2023-05-11T04:34:17;97311.97;;;15.37;98.31
21980;BME280;11154;48.558;9.234;2023-05-11T04:36:19;97308.34;;;15.44;96.85
21980;BME280;11154;48.558;9.234;2023-05-11T04:38:21;97305.69;;;15.51;95.96
21980;BME280;11154;48.558;9.234;2023-05-11T04:40:23;97309.44;;;15.56;94.98
21980;BME280;11154;48.558;9.234;2023-05-11T04:42:25;97309.88;;;15.60;95.02
21980;BME280;11154;48.558;9.234;2023-05-11T04:44:27;97310.31;;;15.63;93.46
21980;BME280;11154;48.558;9.234;2023-05-11T04:46:29;97316.91;;;15.67;93.61
21980;BME280;11154;48.558;9.234;2023-05-11T04:48:32;97311.16;;;15.70;93.70
21980;BME280;11154;48.558;9.234;2023-05-11T04:50:35;97312.63;;;15.73;93.86
21980;BME280;11154;48.558;9.234;2023-05-11T04:52:37;97303.34;;;15.75;93.50
21980;BME280;11154;48.558;9.234;2023-05-11T04:54:38;97304.59;;;15.73;93.68
21980;BME280;11154;48.558;9.234;2023-05-11T04:56:40;97306.66;;;15.77;95.59
21980;BME280;11154;48.558;9.234;2023-05-11T04:58:42;97308.09;;;15.80;96.74
21980;BME280;11154;48.558;9.234;2023-05-11T05:00:43;97305.69;;;15.51;98.39
21980;BME280;11154;48.558;9.234;2023-05-11T05:02:45;97303.03;;;15.23;100.00
21980;BME280;11154;48.558;9.234;2023-05-11T05:04:48;97307.84;;;15.13;100.00
21980;BME280;11154;48.558;9.234;2023-05-11T05:06:50;97310.50;;;15.07;100.00
21980;BME280;11154;48.558;9.234;2023-05-11T05:08:51;97297.03;;;15.01;100.00
21980;BME280;11154;48.558;9.234;2023-05-11T05:10:53;97307.31;;;14.97;100.00
21980;BME280;11154;48.558;9.234;2023-05-11T05:12:54;97302.56;;;14.93;100.00
21980;BME280;11154;48.558;9.234;2023-05-11T05:14:56;97308.53;;;14.95;100.00
21980;BME280;11154;48.558;9.234;2023-05-11T05:16:58;97304.47;;;14.99;100.00
21980;BME280;11154;48.558;9.234;2023-05-11T05:19:00;97306.13;;;15.00;100.00
21980;BME280;11154;48.558;9.234;2023-05-11T05:21:04;97317.66;;;15.00;100.00
21980;BME280;11154;48.558;9.234;2023-05-11T05:23:05;97308.59;;;15.01;100.00
21980;BME280;11154;48.558;9.234;2023-05-11T05:25:08;97304.69;;;15.04;100.00
21980;BME280;11154;48.558;9.234;2023-05-11T05:27:10;97308.41;;;15.03;100.00
21980;BME280;11154;48.558;9.234;2023-05-11T05:29:11;97313.56;;;15.04;100.00
21980;BME280;11154;48.558;9.234;2023-05-11T05:31:13;97316.28;;;15.31;100.00
21980;BME280;11154;48.558;9.234;2023-05-11T05:33:15;97313.09;;;15.49;100.00
21980;BME280;11154;48.558;9.234;2023-05-11T05:35:16;97311.84;;;15.51;100.00
21980;BME280;11154;48.558;9.234;2023-05-11T05:37:19;97307.94;;;15.47;100.00
21980;BME280;11154;48.558;9.234;2023-05-11T05:39:21;97317.63;;;15.48;100.00
21980;BME280;11154;48.558;9.234;2023-05-11T05:41:24;97315.81;;;15.55;100.00
21980;BME280;11154;48.558;9.234;2023-05-11T05:43:25;97309.44;;;15.56;100.00
21980;BME280;11154;48.558;9.234;2023-05-11T05:45:27;97320.38;;;15.61;100.00
21980;BME280;11154;48.558;9.234;2023-05-11T05:47:29;97314.00;;;15.62;100.00
21980;BME280;11154;48.558;9.234;2023-05-11T05:49:30;97318.97;;;15.65;100.00
21980;BME280;11154;48.558;9.234;2023-05-11T05:51:32;97317.31;;;15.64;99.65
21980;BME280;11154;48.558;9.234;2023-05-11T05:53:35;97321.03;;;15.63;99.17
21980;BME280;11154;48.558;9.234;2023-05-11T05:55:37;97320.63;;;15.66;99.39
21980;BME280;11154;48.558;9.234;2023-05-11T05:57:39;97322.28;;;15.67;99.75
21980;BME280;11154;48.558;9.234;2023-05-11T05:59:40;97317.72;;;15.68;99.82
21980;BME280;11154;48.558;9.234;2023-05-11T06:01:42;97323.91;;;15.34;100.00
21980;BME280;11154;48.558;9.234;2023-05-11T06:03:45;97323.94;;;15.13;100.00
21980;BME280;11154;48.558;9.234;2023-05-11T06:05:48;97326.44;;;15.42;100.00
21980;BME280;11154;48.558;9.234;2023-05-11T06:07:49;97325.91;;;15.53;100.00
21980;BME280;11154;48.558;9.234;2023-05-11T06:09:52;97324.28;;;15.59;100.00
21980;BME280;11154;48.558;9.234;2023-05-11T06:11:54;97326.41;;;15.63;100.00
21980;BME280;11154;48.558;9.234;2023-05-11T06:13:56;97329.44;;;15.60;99.09
21980;BME280;11154;48.558;9.234;2023-05-11T06:15:58;97324.88;;;15.54;99.14
21980;BME280;11154;48.558;9.234;2023-05-11T06:17:59;97320.94;;;15.50;99.68
21980;BME280;11154;48.558;9.234;2023-05-11T06:20:01;97332.91;;;15.54;100.00
21980;BME280;11154;48.558;9.234;2023-05-11T06:22:03;97331.47;;;15.52;100.00
21980;BME280;11154;48.558;9.234;2023-05-11T06:24:05;97328.72;;;15.45;100.00
21980;BME280;11154;48.558;9.234;2023-05-11T06:26:08;97329.94;;;15.43;100.00
21980;BME280;11154;48.558;9.234;2023-05-11T06:28:11;97331.16;;;15.40;100.00
21980;BME280;11154;48.558;9.234;2023-05-11T06:30:12;97329.34;;;15.41;100.00
21980;BME280;11154;48.558;9.234;2023-05-11T06:32:14;97340.84;;;15.69;100.00
21980;BME280;11154;48.558;9.234;2023-05-11T06:34:16;97340.28;;;15.80;99.99
21980;BME280;11154;48.558;9.234;2023-05-11T06:36:18;97340.47;;;15.78;99.13
21980;BME280;11154;48.558;9.234;2023-05-11T06:38:20;97338.81;;;15.77;99.08
21980;BME280;11154;48.558;9.234;2023-05-11T06:40:21;97338.44;;;15.80;99.21
21980;BME280;11154;48.558;9.234;2023-05-11T06:42:25;97333.72;;;15.82;98.40
21980;BME280;11154;48.558;9.234;2023-05-11T06:44:27;97332.66;;;15.83;98.59
21980;BME280;11154;48.558;9.234;2023-05-11T06:46:29;97338.88;;;15.84;99.55
21980;BME280;11154;48.558;9.234;2023-05-11T06:48:30;97335.63;;;15.94;99.01
21980;BME280;11154;48.558;9.234;2023-05-11T06:50:32;97332.78;;;16.09;97.49
21980;BME280;11154;48.558;9.234;2023-05-11T06:52:35;97336.06;;;15.98;98.05
21980;BME280;11154;48.558;9.234;2023-05-11T06:54:36;97340.34;;;15.92;99.39
21980;BME280;11154;48.558;9.234;2023-05-11T06:56:38;97342.56;;;15.83;100.00
21980;BME280;11154;48.558;9.234;2023-05-11T06:58:41;97331.84;;;15.76;99.92
21980;BME280;11154;48.558;9.234;2023-05-11T07:00:43;97331.13;;;15.61;100.00
21980;BME280;11154;48.558;9.234;2023-05-11T07:02:44;97325.38;;;15.37;100.00
21980;BME280;11154;48.558;9.234;2023-05-11T07:04:46;97329.34;;;15.20;100.00
21980;BME280;11154;48.558;9.234;2023-05-11T07:06:48;97334.03;;;15.12;100.00
21980;BME280;11154;48.558;9.234;2023-05-11T07:08:50;97327.59;;;15.06;100.00
21980;BME280;11154;48.558;9.234;2023-05-11T07:10:51;97332.13;;;15.06;100.00
21980;BME280;11154;48.558;9.234;2023-05-11T07:12:53;97330.47;;;15.05;100.00
21980;BME280;11154;48.558;9.234;2023-05-11T07:14:56;97334.16;;;15.04;100.00
21980;BME280;11154;48.558;9.234;2023-05-11T07:16:58;97331.47;;;15.04;100.00
21980;BME280;11154;48.558;9.234;2023-05-11T07:18:59;97336.72;;;15.12;100.00
21980;BME280;11154;48.558;9.234;2023-05-11T07:21:01;97333.97;;;15.05;100.00
21980;BME280;11154;48.558;9.234;2023-05-11T07:23:02;97335.03;;;15.11;100.00
21980;BME280;11154;48.558;9.234;2023-05-11T07:25:05;97336.72;;;15.12;100.00
21980;BME280;11154;48.558;9.234;2023-05-11T07:27:08;97336.75;;;15.18;100.00
21980;BME280;11154;48.558;9.234;2023-05-11T07:29:10;97331.81;;;15.21;100.00
21980;BME280;11154;48.558;9.234;2023-05-11T07:31:13;97342.75;;;15.41;100.00
21980;BME280;11154;48.558;9.234;2023-05-11T07:33:15;97346.63;;;15.66;100.00
21980;BME280;11154;48.558;9.234;2023-05-11T07:35:16;97341.91;;;15.74;100.00
21980;BME280;11154;48.558;9.234;2023-05-11T07:37:18;97345.38;;;15.68;100.00
21980;BME280;11154;48.558;9.234;2023-05-11T07:39:20;97350.34;;;15.71;100.00
21980;BME280;11154;48.558;9.234;2023-05-11T07:41:22;97338.00;;;15.77;100.00
21980;BME280;11154;48.558;9.234;2023-05-11T07:43:26;97352.06;;;15.79;100.00
21980;BME280;11154;48.558;9.234;2023-05-11T07:45:27;97355.34;;;15.81;100.00
21980;BME280;11154;48.558;9.234;2023-05-11T07:47:31;97352.50;;;15.82;100.00
21980;BME280;11154;48.558;9.234;2023-05-11T07:49:32;97340.53;;;15.85;100.00
21980;BME280;11154;48.558;9.234;2023-05-11T07:51:34;97342.00;;;15.87;100.00
21980;BME280;11154;48.558;9.234;2023-05-11T07:53:36;97344.66;;;15.87;100.00
21980;BME280;11154;48.558;9.234;2023-05-11T07:55:37;97332.13;;;15.94;100.00
21980;BME280;11154;48.558;9.234;2023-05-11T07:57:39;97337.91;;;15.97;100.00
21980;BME280;11154;48.558;9.234;2023-05-11T07:59:41;97340.66;;;16.10;100.00
21980;BME280;11154;48.558;9.234;2023-05-11T08:01:43;97329.97;;;15.83;100.00
21980;BME280;11154;48.558;9.234;2023-05-11T08:03:46;97331.75;;;15.63;100.00
21980;BME280;11154;48.558;9.234;2023-05-11T08:05:48;97330.63;;;15.51;100.00
21980;BME280;11154;48.558;9.234;2023-05-11T08:07:50;97333.72;;;15.48;100.00
21980;BME280;11154;48.558;9.234;2023-05-11T08:09:52;97337.81;;;15.44;100.00
21980;BME280;11154;48.558;9.234;2023-05-11T08:11:53;97332.03;;;15.41;100.00
21980;BME280;11154;48.558;9.234;2023-05-11T08:13:55;97331.22;;;15.47;100.00
21980;BME280;11154;48.558;9.234;2023-05-11T08:15:57;97334.16;;;15.52;100.00
21980;BME280;11154;48.558;9.234;2023-05-11T08:17:59;97343.63;;;15.54;100.00
21980;BME280;11154;48.558;9.234;2023-05-11T08:20:04;97339.94;;;15.55;100.00
21980;BME280;11154;48.558;9.234;2023-05-11T08:22:06;97342.41;;;15.57;100.00
21980;BME280;11154;48.558;9.234;2023-05-11T08:24:08;97339.78;;;15.63;100.00
21980;BME280;11154;48.558;9.234;2023-05-11T08:26:10;97340.41;;;15.65;100.00
21980;BME280;11154;48.558;9.234;2023-05-11T08:28:12;97341.69;;;15.69;100.00
21980;BME280;11154;48.558;9.234;2023-05-11T08:30:13;97339.19;;;15.68;100.00
21980;BME280;11154;48.558;9.234;2023-05-11T08:32:16;97337.66;;;15.86;100.00
21980;BME280;11154;48.558;9.234;2023-05-11T08:34:17;97334.81;;;15.94;98.45
21980;BME280;11154;48.558;9.234;2023-05-11T08:36:20;97337.50;;;16.00;97.62
21980;BME280;11154;48.558;9.234;2023-05-11T08:38:22;97345.63;;;16.13;98.68
21980;BME280;11154;48.558;9.234;2023-05-11T08:40:26;97346.91;;;16.24;99.63
21980;BME280;11154;48.558;9.234;2023-05-11T08:42:31;97348.16;;;16.28;98.29
21980;BME280;11154;48.558;9.234;2023-05-11T08:44:34;97350.25;;;16.32;98.42
21980;BME280;11154;48.558;9.234;2023-05-11T08:46:39;97349.03;;;16.35;99.22
21980;BME280;11154;48.558;9.234;2023-05-11T08:48:43;97331.69;;;16.31;96.43
21980;BME280;11154;48.558;9.234;2023-05-11T08:50:45;97338.47;;;16.27;95.42
21980;BME280;11154;48.558;9.234;2023-05-11T08:52:49;97345.03;;;16.24;94.96
21980;BME280;11154;48.558;9.234;2023-05-11T08:54:50;97335.75;;;16.20;96.16
21980;BME280;11154;48.558;9.234;2023-05-11T08:56:52;97335.75;;;16.20;97.52
21980;BME280;11154;48.558;9.234;2023-05-11T08:58:54;97338.03;;;16.23;97.59
21980;BME280;11154;48.558;9.234;2023-05-11T09:00:56;97327.25;;;16.10;98.88
21980;BME280;11154;48.558;9.234;2023-05-11T09:02:59;97332.28;;;15.86;100.00
21980;BME280;11154;48.558;9.234;2023-05-11T09:05:01;97336.13;;;15.77;100.00
21980;BME280;11154;48.558;9.234;2023-05-11T09:07:03;97328.09;;;15.77;100.00
21980;BME280;11154;48.558;9.234;2023-05-11T09:09:07;97334.91;;;15.73;100.00
21980;BME280;11154;48.558;9.234;2023-05-11T09:11:09;97329.69;;;15.65;100.00
21980;BME280;11154;48.558;9.234;2023-05-11T09:13:11;97339.31;;;15.53;100.00
21980;BME280;11154;48.558;9.234;2023-05-11T09:15:13;97333.31;;;15.51;100.00
21980;BME280;11154;48.558;9.234;2023-05-11T09:17:15;97339.53;;;15.58;100.00
21980;BME280;11154;48.558;9.234;2023-05-11T09:19:16;97333.31;;;15.51;100.00
21980;BME280;11154;48.558;9.234;2023-05-11T09:21:19;97328.72;;;15.45;98.49
21980;BME280;11154;48.558;9.234;2023-05-11T09:23:24;97329.16;;;15.49;99.59
21980;BME280;11154;48.558;9.234;2023-05-11T09:25:30;97331.69;;;15.57;99.44
21980;BME280;11154;48.558;9.234;2023-05-11T09:27:39;97330.88;;;15.56;99.15
21980;BME280;11154;48.558;9.234;2023-05-11T09:29:41;97331.13;;;15.61;100.00
21980;BME280;11154;48.558;9.234;2023-05-11T09:31:44;97336.19;;;15.84;98.32
21980;BME280;11154;48.558;9.234;2023-05-11T09:33:46;97339.00;;;16.09;97.84
21980;BME280;11154;48.558;9.234;2023-05-11T09:35:48;97341.31;;;16.19;94.98
21980;BME280;11154;48.558;9.234;2023-05-11T09:38:00;97342.00;;;16.34;95.17
21980;BME280;11154;48.558;9.234;2023-05-11T09:40:04;97340.97;;;16.35;93.60
21980;BME280;11154;48.558;9.234;2023-05-11T09:42:15;97343.91;;;16.40;92.52
21980;BME280;11154;48.558;9.234;2023-05-11T09:44:17;97338.75;;;16.45;93.44
21980;BME280;11154;48.558;9.234;2023-05-11T09:46:20;97335.91;;;16.53;95.45
21980;BME280;11154;48.558;9.234;2023-05-11T09:48:29;97344.72;;;16.47;93.34
21980;BME280;11154;48.558;9.234;2023-05-11T09:50:32;97328.41;;;16.42;93.19
21980;BME280;11154;48.558;9.234;2023-05-11T09:52:42;97331.09;;;16.42;92.76
21980;BME280;11154;48.558;9.234;2023-05-11T09:54:50;97339.13;;;16.35;94.65
21980;BME280;11154;48.558;9.234;2023-05-11T09:56:54;97337.25;;;16.36;95.92
21980;BME280;11154;48.558;9.234;2023-05-11T09:58:59;97337.47;;;16.41;94.93
21980;BME280;11154;48.558;9.234;2023-05-11T10:01:00;97323.56;;;16.18;95.93
21980;BME280;11154;48.558;9.234;2023-05-11T10:03:04;97323.59;;;15.84;99.95
21980;BME280;11154;48.558;9.234;2023-05-11T10:05:10;97329.06;;;15.63;100.00
21980;BME280;11154;48.558;9.234;2023-05-11T10:07:22;97322.78;;;15.50;100.00
21980;BME280;11154;48.558;9.234;2023-05-11T10:09:25;97334.94;;;15.46;100.00
21980;BME280;11154;48.558;9.234;2023-05-11T10:11:27;97333.66;;;15.42;100.00
21980;BME280;11154;48.558;9.234;2023-05-11T10:13:30;97335.94;;;15.45;100.00
21980;BME280;11154;48.558;9.234;2023-05-11T10:15:34;97333.06;;;15.46;100.00
21980;BME280;11154;48.558;9.234;2023-05-11T10:17:37;97336.72;;;15.39;99.49
21980;BME280;11154;48.558;9.234;2023-05-11T10:19:38;97331.59;;;15.37;100.00
21980;BME280;11154;48.558;9.234;2023-05-11T10:21:40;97325.81;;;15.40;100.00
21980;BME280;11154;48.558;9.234;2023-05-11T10:23:42;97334.59;;;15.55;100.00
21980;BME280;11154;48.558;9.234;2023-05-11T10:25:44;97337.47;;;15.54;100.00
21980;BME280;11154;48.558;9.234;2023-05-11T10:27:47;97335.03;;;15.59;100.00
21980;BME280;11154;48.558;9.234;2023-05-11T10:29:49;97336.19;;;15.50;100.00
21980;BME280;11154;48.558;9.234;2023-05-11T10:31:54;97342.13;;;15.79;97.88
21980;BME280;11154;48.558;9.234;2023-05-11T10:34:00;97331.78;;;16.10;96.05
21980;BME280;11154;48.558;9.234;2023-05-11T10:36:01;97324.78;;;16.22;95.94
21980;BME280;11154;48.558;9.234;2023-05-11T10:38:04;97325.72;;;16.35;95.20
21980;BME280;11154;48.558;9.234;2023-05-11T10:40:07;97329.25;;;16.42;94.65
21980;BME280;11154;48.558;9.234;2023-05-11T10:44:59;97324.69;;;16.43;94.54
21980;BME280;11154;48.558;9.234;2023-05-11T10:47:36;97312.34;;;16.55;96.27
21980;BME280;11154;48.558;9.234;2023-05-11T10:52:24;97324.31;;;16.52;94.62
21980;BME280;11154;48.558;9.234;2023-05-11T10:54:43;97318.09;;;16.45;94.60
21980;BME280;11154;48.558;9.234;2023-05-11T10:57:01;97312.31;;;16.42;94.33
21980;BME280;11154;48.558;9.234;2023-05-11T10:59:26;97307.34;;;16.45;95.07